Strona główna
METAR-TAF:

METAR-TAF

Lotnisko :

Port lotniczy Lemnos

Lemnos, Grecja

Szerokość geograficzna: 39-55N, Długość geograficzna: 025-14E, wysokość: 5 m

Aktualna obserwacja pogody

Raport powstał 44 minut temu, godzina 19:50 UTC
Wiatr 3 kt z kierunków zmiennych
Temperatura 23°C
Wilgotność 73%
Ciśnienie 1008 hPa
Widzialność 10 km lub więcej
Mało chmury na wysokości 2500 ft

METAR: LGLM 171950Z VRB03KT 9999 FEW025 23/18 Q1008

czas: 23:34 (20:34 UTC)

Prognoza

Raport powstał 3 godziny i 34 minut temu, godzina 17:00 UTC
Prognoza ważna od 17 godzina 18 UTC do 18 godzina 03 UTC
Wiatr 10 kt od północno-północny wschód
Widzialność 10 km lub więcej
Mało chmury na wysokości 2500 ft

TAF: LGLM 171700Z 1718/1803 02010KT 9999 FEW025

Obserwacja i prognoza pogody dla ponad 4000 lotnisk (raport METAR i TAF).

Dostępne stacje oznaczono żółtymi i czerwonymi punktami na mapie.

Najedź kursorem aby zobaczyć nazwę stacji.

Kliknij aby zobaczyć obserwacje i prognozy pogody.

Aby zmienić mapę: kliknij na zielony przycisk z czarnym krzyżykiem, aby powiększyć; na zielony przycisk z myślnikiem, aby pomniejszyć; na zielone strzałki, aby przejść do map sąsiednich.


METAR-TAF: